»·PEaware :: AAL189 KRNO-KLAX

AAL189 :: KRNO-KLAX

FLIGHT INFORMATION

Flight Status: Arrived
Operator:
American Airlines
More flights by this operator :: More flights under this callsign
Pilot: Patricio R. (14780)
Aircraft: AIRBUS A320
(A320)
More flights by this aircraft type
Origin: KRNO Reno/Tahoe Intl
United States
Destination: KLAX Los Angeles Intl
United States
More flights between these airports :: More routes between these airports
Route: +ZEFFR6 DARBI FRA J7 REBRG IRNMN2
File this flight plan on PilotEdge
Remarks:
Altitude:
(Current/Filed)
37,000ft
Speed:
(Current/Filed)
452kts
Departed: 08-Sep-18 02:08 PM
Arrived: 08-Sep-18 03:17 PM
Distance/Time
Traveled:
340nm/1:09
Distance/Time
To Go:
Arrived

Flight Plot

Page will automatically refresh every two minutes.

Flight plan parsing failed; only flown route is shown


Map Options




Map Legend


Flown Route
Filed Route
Departure Airport
Arrival Airport
Navaid (VOR, NDB)
Fix

Horizontal Profiles

Position Reports

Time Latitude Longitude Heading Altitude Ground
Speed
08-Sep-18 13:50 39.507381 -119.772752 191 4417ft 0kts
08-Sep-18 13:51 39.507381 -119.772752 191 4417ft 0kts
08-Sep-18 13:52 39.507381 -119.772752 191 4417ft 0kts
08-Sep-18 13:53 39.507381 -119.772752 191 4417ft 0kts
08-Sep-18 13:54 39.507381 -119.772752 191 4417ft 0kts
08-Sep-18 13:55 39.507381 -119.772752 191 4417ft 0kts
08-Sep-18 13:56 39.507381 -119.772752 191 4417ft 0kts
08-Sep-18 13:57 39.507382 -119.772752 191 4417ft 0kts
08-Sep-18 13:58 39.507840 -119.772642 164 4417ft 2kts
08-Sep-18 13:59 39.508022 -119.772992 90 4418ft 0kts
08-Sep-18 14:00 39.508022 -119.772992 90 4418ft 0kts
08-Sep-18 14:01 39.508022 -119.772992 90 4418ft 0kts
08-Sep-18 14:02 39.508022 -119.772992 90 4418ft 0kts
08-Sep-18 14:03 39.508022 -119.772992 90 4418ft 0kts
08-Sep-18 14:04 39.508022 -119.772992 90 4418ft 0kts
08-Sep-18 14:05 39.508022 -119.772992 90 4418ft 0kts
08-Sep-18 14:06 39.508788 -119.771484 0 4417ft 7kts
08-Sep-18 14:07 39.512481 -119.771497 0 4421ft 11kts
08-Sep-18 14:08 39.513739 -119.770324 92 4422ft 0kts
08-Sep-18 14:09 39.513739 -119.770323 92 4422ft 0kts
08-Sep-18 14:10 39.500209 -119.769243 180 4413ft 156kts
08-Sep-18 14:11 39.451493 -119.769483 179 6951ft 187kts
08-Sep-18 14:12 39.388321 -119.769844 183 8625ft 270kts
08-Sep-18 14:13 39.308032 -119.769819 181 11444ft 298kts
08-Sep-18 14:14 39.224302 -119.766305 181 14427ft 315kts
08-Sep-18 14:15 39.128856 -119.762711 182 16017ft 362kts
08-Sep-18 14:16 39.027621 -119.758778 182 18355ft 373kts
08-Sep-18 14:17 38.922425 -119.754801 182 20463ft 385kts
08-Sep-18 14:18 38.814890 -119.750770 182 22388ft 396kts
08-Sep-18 14:19 38.703647 -119.746614 183 24174ft 406kts
08-Sep-18 14:20 38.590036 -119.742383 183 25812ft 415kts
08-Sep-18 14:21 38.473645 -119.738066 184 27280ft 424kts
08-Sep-18 14:22 38.354801 -119.733671 184 28592ft 433kts
08-Sep-18 14:23 38.233366 -119.723993 181 29777ft 445kts
08-Sep-18 14:24 38.109646 -119.709722 181 30850ft 452kts
08-Sep-18 14:25 37.984243 -119.695267 182 32096ft 452kts
08-Sep-18 14:26 37.859933 -119.681010 182 33312ft 451kts
08-Sep-18 14:27 37.735741 -119.666828 182 34427ft 450kts
08-Sep-18 14:28 37.612050 -119.652739 182 35547ft 446kts
08-Sep-18 14:29 37.489010 -119.638780 182 36556ft 444kts
08-Sep-18 14:30 37.366744 -119.624971 182 36982ft 444kts
08-Sep-18 14:31 37.244058 -119.611140 182 36987ft 444kts
08-Sep-18 14:32 37.121343 -119.597409 183 36987ft 443kts
08-Sep-18 14:33 36.999476 -119.597309 186 36958ft 439kts
08-Sep-18 14:34 36.877498 -119.599415 185 36960ft 443kts
08-Sep-18 14:35 36.755102 -119.601526 185 36999ft 445kts
08-Sep-18 14:36 36.631675 -119.603645 185 37009ft 446kts
08-Sep-18 14:37 36.507922 -119.605765 185 37010ft 446kts
08-Sep-18 14:38 36.384172 -119.607881 185 36998ft 446kts
08-Sep-18 14:39 36.260453 -119.609992 185 36988ft 445kts
08-Sep-18 14:40 36.137386 -119.612085 185 36982ft 445kts
08-Sep-18 14:41 36.013751 -119.614183 185 36980ft 445kts
08-Sep-18 14:42 35.896178 -119.646838 201 36981ft 435kts
08-Sep-18 14:43 35.783398 -119.689126 201 36969ft 435kts
08-Sep-18 14:44 35.667811 -119.731697 198 36951ft 436kts
08-Sep-18 14:45 35.549142 -119.761293 195 36956ft 438kts
08-Sep-18 14:46 35.429819 -119.790209 195 36963ft 438kts
08-Sep-18 14:47 35.309170 -119.807062 176 36962ft 451kts
08-Sep-18 14:48 35.195778 -119.737659 146 34606ft 472kts
08-Sep-18 14:49 35.091253 -119.639742 145 31849ft 477kts
08-Sep-18 14:50 34.987677 -119.543434 145 29483ft 470kts
08-Sep-18 14:51 34.887488 -119.451116 145 27423ft 456kts
08-Sep-18 14:52 34.791695 -119.365651 144 25433ft 441kts
08-Sep-18 14:53 34.700532 -119.285054 145 23911ft 416kts
08-Sep-18 14:54 34.608261 -119.204976 146 21877ft 403kts
08-Sep-18 14:55 34.518735 -119.126938 144 19882ft 390kts
08-Sep-18 14:56 34.432972 -119.051028 145 17924ft 378kts
08-Sep-18 14:57 34.348893 -118.978280 145 15970ft 367kts
08-Sep-18 14:58 34.268744 -118.905945 143 14064ft 356kts
08-Sep-18 14:59 34.192002 -118.835548 142 12652ft 330kts
08-Sep-18 15:00 34.125393 -118.767549 137 11521ft 306kts
08-Sep-18 15:01 34.063018 -118.699831 138 10103ft 296kts
08-Sep-18 15:02 34.025339 -118.620132 95 8919ft 281kts
08-Sep-18 15:03 34.016774 -118.527527 96 7627ft 275kts
08-Sep-18 15:04 34.011560 -118.440748 83 7054ft 245kts
08-Sep-18 15:05 34.020170 -118.360290 82 6080ft 241kts
08-Sep-18 15:06 34.028710 -118.285227 82 5171ft 238kts
08-Sep-18 15:07 34.037707 -118.208678 82 5025ft 228kts
08-Sep-18 15:08 34.046612 -118.132697 82 5025ft 228kts
08-Sep-18 15:09 34.055428 -118.056882 82 5027ft 229kts
08-Sep-18 15:10 34.060224 -117.980527 115 5037ft 230kts
08-Sep-18 15:11 34.011166 -117.976657 238 5028ft 217kts
08-Sep-18 15:12 33.983434 -118.041111 242 5020ft 218kts
08-Sep-18 15:13 33.966048 -118.110129 261 4564ft 217kts
08-Sep-18 15:14 33.958107 -118.183789 262 3329ft 225kts
08-Sep-18 15:15 33.950851 -118.253097 262 2251ft 184kts
08-Sep-18 15:16 33.945188 -118.307523 262 1351ft 144kts
08-Sep-18 15:17 33.940437 -118.352906 263 498ft 135kts
08-Sep-18 15:18 33.935973 -118.396423 263 112ft 91kts
08-Sep-18 15:19 33.936253 -118.403885 271 125ft 11kts
08-Sep-18 15:20 33.936638 -118.408965 350 132ft 17kts
08-Sep-18 15:21 33.938793 -118.407972 84 132ft 10kts
08-Sep-18 15:22 33.939856 -118.405604 295 129ft 6kts
08-Sep-18 15:23 33.940032 -118.406092 293 129ft 0kts
08-Sep-18 15:24 33.940033 -118.406096 293 129ft 0kts

Navigation Log

Ident Type
Flight plan parsing failed, navigation log unavailable